sensor_id;sensor_type;location;lat;lon;timestamp;pressure;altitude;pressure_sealevel;temperature;humidity
12949;BME280;6539;49.476;8.484;2023-09-19T00:02:58;100001.31;;;17.87;100.00
12949;BME280;6539;49.476;8.484;2023-09-19T00:05:45;99998.84;;;17.89;100.00
12949;BME280;6539;49.476;8.484;2023-09-19T00:08:34;100003.63;;;17.89;100.00
12949;BME280;6539;49.476;8.484;2023-09-19T00:11:22;100004.38;;;17.89;100.00
12949;BME280;6539;49.476;8.484;2023-09-19T00:14:14;100004.53;;;17.95;100.00
12949;BME280;6539;49.476;8.484;2023-09-19T00:17:00;100007.16;;;17.89;100.00
12949;BME280;6539;49.476;8.484;2023-09-19T00:19:51;100016.72;;;17.88;100.00
12949;BME280;6539;49.476;8.484;2023-09-19T00:22:42;100022.75;;;17.87;100.00
12949;BME280;6539;49.476;8.484;2023-09-19T00:25:40;100027.53;;;17.86;100.00
12949;BME280;6539;49.476;8.484;2023-09-19T00:28:28;100022.44;;;17.85;100.00
12949;BME280;6539;49.476;8.484;2023-09-19T00:31:17;100023.66;;;17.84;100.00
12949;BME280;6539;49.476;8.484;2023-09-19T00:34:04;100027.22;;;17.84;100.00
12949;BME280;6539;49.476;8.484;2023-09-19T00:36:51;100027.22;;;17.84;100.00
12949;BME280;6539;49.476;8.484;2023-09-19T00:39:38;100030.31;;;17.86;100.00
12949;BME280;6539;49.476;8.484;2023-09-19T00:42:26;100033.72;;;17.81;100.00
12949;BME280;6539;49.476;8.484;2023-09-19T00:45:15;100028.31;;;17.87;100.00
12949;BME280;6539;49.476;8.484;2023-09-19T00:48:05;100037.84;;;17.86;100.00
12949;BME280;6539;49.476;8.484;2023-09-19T00:50:57;100047.28;;;17.88;100.00
12949;BME280;6539;49.476;8.484;2023-09-19T00:53:46;100058.25;;;17.92;100.00
12949;BME280;6539;49.476;8.484;2023-09-19T00:56:35;100042.50;;;17.89;100.00
12949;BME280;6539;49.476;8.484;2023-09-19T00:59:23;100052.81;;;17.88;100.00
12949;BME280;6539;49.476;8.484;2023-09-19T01:02:09;100046.84;;;17.90;100.00
12949;BME280;6539;49.476;8.484;2023-09-19T01:04:59;100057.00;;;17.84;100.00
12949;BME280;6539;49.476;8.484;2023-09-19T01:07:52;100057.16;;;17.80;100.00
12949;BME280;6539;49.476;8.484;2023-09-19T01:17:49;100058.41;;;17.70;100.00
12949;BME280;6539;49.476;8.484;2023-09-19T01:30:35;100055.75;;;17.67;100.00
12949;BME280;6539;49.476;8.484;2023-09-19T01:33:22;100071.03;;;17.71;100.00
12949;BME280;6539;49.476;8.484;2023-09-19T01:36:09;100067.66;;;17.76;100.00
12949;BME280;6539;49.476;8.484;2023-09-19T01:38:56;100079.38;;;17.80;100.00
12949;BME280;6539;49.476;8.484;2023-09-19T01:42:06;100072.44;;;17.85;100.00
12949;BME280;6539;49.476;8.484;2023-09-19T01:47:53;100089.84;;;17.94;100.00
12949;BME280;6539;49.476;8.484;2023-09-19T01:50:59;100081.69;;;17.91;100.00
12949;BME280;6539;49.476;8.484;2023-09-19T01:54:01;100088.31;;;17.93;100.00
12949;BME280;6539;49.476;8.484;2023-09-19T01:57:17;100085.06;;;17.95;100.00
12949;BME280;6539;49.476;8.484;2023-09-19T02:00:10;100090.03;;;18.00;100.00
12949;BME280;6539;49.476;8.484;2023-09-19T02:03:00;100079.81;;;17.97;100.00
12949;BME280;6539;49.476;8.484;2023-09-19T02:05:51;100105.59;;;17.97;100.00
12949;BME280;6539;49.476;8.484;2023-09-19T02:08:39;100104.69;;;18.00;100.00
12949;BME280;6539;49.476;8.484;2023-09-19T02:11:26;100100.34;;;17.99;100.00
12949;BME280;6539;49.476;8.484;2023-09-19T02:14:12;100106.09;;;17.96;100.00
12949;BME280;6539;49.476;8.484;2023-09-19T02:16:58;100101.75;;;17.95;100.00
12949;BME280;6539;49.476;8.484;2023-09-19T02:19:44;100109.00;;;17.92;100.00
12949;BME280;6539;49.476;8.484;2023-09-19T02:22:30;100109.94;;;17.89;100.00
12949;BME280;6539;49.476;8.484;2023-09-19T02:25:16;100117.97;;;17.87;100.00
12949;BME280;6539;49.476;8.484;2023-09-19T02:28:06;100118.56;;;17.91;100.00
12949;BME280;6539;49.476;8.484;2023-09-19T02:30:52;100121.03;;;17.89;100.00
12949;BME280;6539;49.476;8.484;2023-09-19T02:33:38;100129.81;;;17.88;100.00
12949;BME280;6539;49.476;8.484;2023-09-19T02:36:24;100132.59;;;17.88;100.00
12949;BME280;6539;49.476;8.484;2023-09-19T02:39:10;100131.06;;;17.87;100.00
12949;BME280;6539;49.476;8.484;2023-09-19T02:41:59;100140.47;;;17.89;100.00
12949;BME280;6539;49.476;8.484;2023-09-19T02:44:45;100143.38;;;17.86;100.00
12949;BME280;6539;49.476;8.484;2023-09-19T02:47:32;100140.00;;;17.91;100.00
12949;BME280;6539;49.476;8.484;2023-09-19T02:50:19;100144.34;;;17.83;100.00
12949;BME280;6539;49.476;8.484;2023-09-19T02:53:05;100148.97;;;17.77;100.00
12949;BME280;6539;49.476;8.484;2023-09-19T02:55:52;100145.41;;;17.85;100.00
12949;BME280;6539;49.476;8.484;2023-09-19T02:58:41;100146.63;;;17.84;100.00
12949;BME280;6539;49.476;8.484;2023-09-19T03:01:31;100152.47;;;17.77;100.00
12949;BME280;6539;49.476;8.484;2023-09-19T03:04:17;100143.84;;;17.75;100.00
12949;BME280;6539;49.476;8.484;2023-09-19T03:07:08;100152.16;;;17.75;100.00
12949;BME280;6539;49.476;8.484;2023-09-19T03:09:56;100157.72;;;17.75;100.00
12949;BME280;6539;49.476;8.484;2023-09-19T03:12:46;100149.56;;;17.72;100.00
12949;BME280;6539;49.476;8.484;2023-09-19T03:15:34;100157.09;;;17.71;100.00
12949;BME280;6539;49.476;8.484;2023-09-19T03:18:24;100166.81;;;17.67;100.00
12949;BME280;6539;49.476;8.484;2023-09-19T03:21:12;100163.72;;;17.65;100.00
12949;BME280;6539;49.476;8.484;2023-09-19T03:23:58;100167.91;;;17.69;100.00
12949;BME280;6539;49.476;8.484;2023-09-19T03:26:49;100166.06;;;17.75;100.00
12949;BME280;6539;49.476;8.484;2023-09-19T03:29:40;100162.34;;;17.69;99.85
12949;BME280;6539;49.476;8.484;2023-09-19T03:32:28;100166.06;;;17.66;100.00
12949;BME280;6539;49.476;8.484;2023-09-19T03:35:17;100179.16;;;17.66;99.76
12949;BME280;6539;49.476;8.484;2023-09-19T03:38:04;100181.31;;;17.62;100.00
12949;BME280;6539;49.476;8.484;2023-09-19T03:40:50;100184.22;;;17.58;100.00
12949;BME280;6539;49.476;8.484;2023-09-19T03:43:38;100184.22;;;17.58;99.86
12949;BME280;6539;49.476;8.484;2023-09-19T03:46:25;100185.78;;;17.59;98.51
12949;BME280;6539;49.476;8.484;2023-09-19T03:49:11;100186.69;;;17.56;98.53
12949;BME280;6539;49.476;8.484;2023-09-19T03:51:59;100188.34;;;17.53;99.15
12949;BME280;6539;49.476;8.484;2023-09-19T03:54:50;100195.16;;;17.52;99.45
12949;BME280;6539;49.476;8.484;2023-09-19T03:57:39;100194.38;;;17.52;99.81
12949;BME280;6539;49.476;8.484;2023-09-19T04:00:25;100190.81;;;17.51;100.00
12949;BME280;6539;49.476;8.484;2023-09-19T04:03:16;100192.94;;;17.47;100.00
12949;BME280;6539;49.476;8.484;2023-09-19T04:06:06;100194.94;;;17.47;99.52
12949;BME280;6539;49.476;8.484;2023-09-19T04:08:52;100195.88;;;17.44;99.52
12949;BME280;6539;49.476;8.484;2023-09-19T04:11:40;100204.19;;;17.44;99.33
12949;BME280;6539;49.476;8.484;2023-09-19T04:14:28;100201.41;;;17.44;98.09
12949;BME280;6539;49.476;8.484;2023-09-19T04:17:17;100206.03;;;17.38;97.90
12949;BME280;6539;49.476;8.484;2023-09-19T04:20:06;100207.25;;;17.37;97.86
12949;BME280;6539;49.476;8.484;2023-09-19T04:22:53;100206.59;;;17.33;96.25
12949;BME280;6539;49.476;8.484;2023-09-19T04:25:41;100203.38;;;17.34;95.09
12949;BME280;6539;49.476;8.484;2023-09-19T04:28:27;100213.84;;;17.30;93.50
12949;BME280;6539;49.476;8.484;2023-09-19T04:31:16;100223.53;;;17.26;94.13
12949;BME280;6539;49.476;8.484;2023-09-19T04:34:02;100226.31;;;17.26;94.01
12949;BME280;6539;49.476;8.484;2023-09-19T04:36:49;100230.75;;;17.23;93.70
12949;BME280;6539;49.476;8.484;2023-09-19T04:39:37;100228.13;;;17.20;93.40
12949;BME280;6539;49.476;8.484;2023-09-19T04:42:24;100221.78;;;17.19;91.81
12949;BME280;6539;49.476;8.484;2023-09-19T04:45:13;100229.34;;;17.19;90.38
12949;BME280;6539;49.476;8.484;2023-09-19T04:48:05;100233.16;;;17.12;90.50
12949;BME280;6539;49.476;8.484;2023-09-19T04:50:54;100230.84;;;17.11;90.16
12949;BME280;6539;49.476;8.484;2023-09-19T04:53:45;100233.75;;;17.07;89.82
12949;BME280;6539;49.476;8.484;2023-09-19T04:56:31;100238.22;;;17.05;89.75
12949;BME280;6539;49.476;8.484;2023-09-19T04:59:20;100246.22;;;17.03;89.85
12949;BME280;6539;49.476;8.484;2023-09-19T05:02:08;100242.66;;;17.02;89.81
12949;BME280;6539;49.476;8.484;2023-09-19T05:04:54;100258.50;;;17.02;90.09
12949;BME280;6539;49.476;8.484;2023-09-19T05:07:41;100253.88;;;16.99;89.63
12949;BME280;6539;49.476;8.484;2023-09-19T05:10:28;100263.75;;;17.00;88.78
12949;BME280;6539;49.476;8.484;2023-09-19T05:13:14;100269.75;;;16.98;88.80
12949;BME280;6539;49.476;8.484;2023-09-19T05:16:01;100270.63;;;16.95;88.89
12949;BME280;6539;49.476;8.484;2023-09-19T05:18:49;100274.66;;;16.94;89.29
12949;BME280;6539;49.476;8.484;2023-09-19T05:21:35;100280.34;;;16.91;88.08
12949;BME280;6539;49.476;8.484;2023-09-19T05:24:21;100285.09;;;16.90;88.01
12949;BME280;6539;49.476;8.484;2023-09-19T05:27:09;100281.31;;;16.97;87.57
12949;BME280;6539;49.476;8.484;2023-09-19T05:29:57;100287.03;;;17.02;86.31
12949;BME280;6539;49.476;8.484;2023-09-19T05:32:48;100284.59;;;17.04;86.29
12949;BME280;6539;49.476;8.484;2023-09-19T05:35:37;100291.22;;;17.07;86.37
12949;BME280;6539;49.476;8.484;2023-09-19T05:38:25;100289.88;;;17.11;85.80
12949;BME280;6539;49.476;8.484;2023-09-19T05:41:12;100292.66;;;17.11;85.08
12949;BME280;6539;49.476;8.484;2023-09-19T05:44:03;100292.06;;;17.16;84.64
12949;BME280;6539;49.476;8.484;2023-09-19T05:46:51;100288.84;;;17.18;84.07
12949;BME280;6539;49.476;8.484;2023-09-19T05:49:38;100293.59;;;17.17;83.90
12949;BME280;6539;49.476;8.484;2023-09-19T05:52:24;100283.28;;;17.18;83.75
12949;BME280;6539;49.476;8.484;2023-09-19T05:55:12;100289.63;;;17.18;83.78
12949;BME280;6539;49.476;8.484;2023-09-19T05:57:59;100292.72;;;17.20;83.20
12949;BME280;6539;49.476;8.484;2023-09-19T06:00:45;100297.81;;;17.22;83.36
12949;BME280;6539;49.476;8.484;2023-09-19T06:03:36;100306.44;;;17.24;83.68
12949;BME280;6539;49.476;8.484;2023-09-19T06:06:24;100306.66;;;17.29;83.68
12949;BME280;6539;49.476;8.484;2023-09-19T06:09:11;100318.38;;;17.33;84.05
12949;BME280;6539;49.476;8.484;2023-09-19T06:11:57;100316.50;;;17.30;85.12
12949;BME280;6539;49.476;8.484;2023-09-19T06:14:49;100329.59;;;17.30;85.91
12949;BME280;6539;49.476;8.484;2023-09-19T06:17:40;100328.72;;;17.33;86.54
12949;BME280;6539;49.476;8.484;2023-09-19T06:20:28;100331.47;;;17.33;86.89
12949;BME280;6539;49.476;8.484;2023-09-19T06:23:20;100332.25;;;17.33;86.98
12949;BME280;6539;49.476;8.484;2023-09-19T06:26:06;100336.56;;;17.34;86.55
12949;BME280;6539;49.476;8.484;2023-09-19T06:28:56;100338.56;;;17.34;86.71
12949;BME280;6539;49.476;8.484;2023-09-19T06:31:43;100340.31;;;17.40;86.17
12949;BME280;6539;49.476;8.484;2023-09-19T06:34:30;100346.00;;;17.37;86.09
12949;BME280;6539;49.476;8.484;2023-09-19T06:37:18;100350.66;;;17.40;86.06
12949;BME280;6539;49.476;8.484;2023-09-19T06:40:12;100351.41;;;17.40;85.69
12949;BME280;6539;49.476;8.484;2023-09-19T06:43:02;100345.28;;;17.45;85.67
12949;BME280;6539;49.476;8.484;2023-09-19T06:45:49;100357.47;;;17.48;85.88
12949;BME280;6539;49.476;8.484;2023-09-19T06:48:37;100346.91;;;17.56;85.20
12949;BME280;6539;49.476;8.484;2023-09-19T06:51:23;100358.78;;;17.56;85.02
12949;BME280;6539;49.476;8.484;2023-09-19T06:54:10;100356.00;;;17.56;85.36
12949;BME280;6539;49.476;8.484;2023-09-19T06:56:58;100351.09;;;17.60;85.01
12949;BME280;6539;49.476;8.484;2023-09-19T06:59:46;100352.97;;;17.63;84.71
12949;BME280;6539;49.476;8.484;2023-09-19T07:02:32;100353.69;;;17.55;85.29
12949;BME280;6539;49.476;8.484;2023-09-19T07:05:18;100364.97;;;17.60;85.68
12949;BME280;6539;49.476;8.484;2023-09-19T07:08:06;100374.28;;;17.66;85.56
12949;BME280;6539;49.476;8.484;2023-09-19T07:10:52;100376.47;;;17.71;84.73
12949;BME280;6539;49.476;8.484;2023-09-19T07:13:40;100374.31;;;17.75;84.73
12949;BME280;6539;49.476;8.484;2023-09-19T07:16:28;100381.94;;;17.84;84.67
12949;BME280;6539;49.476;8.484;2023-09-19T07:19:15;100380.56;;;17.88;84.42
12949;BME280;6539;49.476;8.484;2023-09-19T07:22:02;100382.03;;;18.02;83.27
12949;BME280;6539;49.476;8.484;2023-09-19T07:24:50;100379.88;;;18.06;82.43
12949;BME280;6539;49.476;8.484;2023-09-19T07:27:42;100379.59;;;18.13;81.67
12949;BME280;6539;49.476;8.484;2023-09-19T07:30:31;100382.69;;;18.15;80.99
12949;BME280;6539;49.476;8.484;2023-09-19T07:33:17;100391.84;;;18.24;80.11
12949;BME280;6539;49.476;8.484;2023-09-19T07:36:05;100389.09;;;18.34;79.22
12949;BME280;6539;49.476;8.484;2023-09-19T07:38:53;100401.63;;;18.38;78.90
12949;BME280;6539;49.476;8.484;2023-09-19T07:41:40;100407.03;;;18.42;78.76
12949;BME280;6539;49.476;8.484;2023-09-19T07:44:29;100413.75;;;18.53;78.70
12949;BME280;6539;49.476;8.484;2023-09-19T07:47:16;100409.44;;;18.61;77.68
12949;BME280;6539;49.476;8.484;2023-09-19T07:50:02;100407.16;;;18.69;72.40
12949;BME280;6539;49.476;8.484;2023-09-19T07:52:50;100413.50;;;18.69;73.50
12949;BME280;6539;49.476;8.484;2023-09-19T07:55:39;100414.25;;;18.79;73.60
12949;BME280;6539;49.476;8.484;2023-09-19T07:58:33;100417.56;;;18.95;70.99
12949;BME280;6539;49.476;8.484;2023-09-19T08:01:21;100419.41;;;18.98;67.06
12949;BME280;6539;49.476;8.484;2023-09-19T08:04:11;100422.03;;;19.02;65.84
12949;BME280;6539;49.476;8.484;2023-09-19T08:06:57;100433.81;;;19.06;65.54
12949;BME280;6539;49.476;8.484;2023-09-19T08:09:48;100429.75;;;19.07;65.55
12949;BME280;6539;49.476;8.484;2023-09-19T08:12:37;100436.56;;;19.15;65.72
12949;BME280;6539;49.476;8.484;2023-09-19T08:15:23;100434.41;;;19.28;65.79
12949;BME280;6539;49.476;8.484;2023-09-19T08:18:11;100449.41;;;19.31;63.47
12949;BME280;6539;49.476;8.484;2023-09-19T08:20:57;100451.91;;;19.29;62.17
12949;BME280;6539;49.476;8.484;2023-09-19T08:23:48;100454.88;;;19.34;62.37
12949;BME280;6539;49.476;8.484;2023-09-19T08:26:34;100464.47;;;19.42;61.96
12949;BME280;6539;49.476;8.484;2023-09-19T08:29:26;100466.78;;;19.44;61.13
12949;BME280;6539;49.476;8.484;2023-09-19T08:32:17;100461.69;;;19.42;59.62
12949;BME280;6539;49.476;8.484;2023-09-19T08:35:05;100466.63;;;19.47;59.61
12949;BME280;6539;49.476;8.484;2023-09-19T08:37:51;100467.69;;;19.59;59.30
12949;BME280;6539;49.476;8.484;2023-09-19T08:40:38;100479.63;;;19.68;59.11
12949;BME280;6539;49.476;8.484;2023-09-19T08:43:29;100480.53;;;19.65;58.51
12949;BME280;6539;49.476;8.484;2023-09-19T08:46:16;100466.00;;;19.70;57.18
12949;BME280;6539;49.476;8.484;2023-09-19T08:49:11;100478.38;;;19.60;58.11
12949;BME280;6539;49.476;8.484;2023-09-19T08:52:41;100469.72;;;19.67;57.29
12949;BME280;6539;49.476;8.484;2023-09-19T08:55:29;100467.88;;;19.64;57.43
12949;BME280;6539;49.476;8.484;2023-09-19T08:58:20;100477.44;;;19.63;57.50
12949;BME280;6539;49.476;8.484;2023-09-19T09:01:09;100482.25;;;19.63;57.58
12949;BME280;6539;49.476;8.484;2023-09-19T09:03:58;100479.00;;;19.64;57.82
12949;BME280;6539;49.476;8.484;2023-09-19T09:06:46;100476.50;;;19.75;57.63
12949;BME280;6539;49.476;8.484;2023-09-19T09:09:37;100468.00;;;19.88;57.10
12949;BME280;6539;49.476;8.484;2023-09-19T09:12:25;100476.19;;;19.83;56.90
12949;BME280;6539;49.476;8.484;2023-09-19T09:15:15;100467.53;;;19.90;57.04
12949;BME280;6539;49.476;8.484;2023-09-19T09:18:03;100479.44;;;19.90;55.68
12949;BME280;6539;49.476;8.484;2023-09-19T09:20:50;100483.16;;;19.87;55.47
12949;BME280;6539;49.476;8.484;2023-09-19T09:23:36;100479.09;;;19.97;54.89
12949;BME280;6539;49.476;8.484;2023-09-19T09:26:44;100484.34;;;20.04;54.73
12949;BME280;6539;49.476;8.484;2023-09-19T09:29:47;100486.03;;;20.11;53.40
12949;BME280;6539;49.476;8.484;2023-09-19T09:32:37;100484.97;;;20.08;53.75
12949;BME280;6539;49.476;8.484;2023-09-19T09:35:25;100488.13;;;19.92;54.59
12949;BME280;6539;49.476;8.484;2023-09-19T09:38:13;100496.47;;;20.01;54.79
12949;BME280;6539;49.476;8.484;2023-09-19T09:41:00;100492.28;;;19.78;55.81
12949;BME280;6539;49.476;8.484;2023-09-19T09:43:56;100485.19;;;19.59;56.59
12949;BME280;6539;49.476;8.484;2023-09-19T09:46:48;100476.53;;;19.48;56.56
12949;BME280;6539;49.476;8.484;2023-09-19T09:49:37;100479.31;;;19.66;56.61
12949;BME280;6539;49.476;8.484;2023-09-19T09:52:25;100484.84;;;19.85;56.37
12949;BME280;6539;49.476;8.484;2023-09-19T09:55:11;100489.00;;;20.07;56.17
12949;BME280;6539;49.476;8.484;2023-09-19T09:58:16;100486.50;;;20.18;55.09
12949;BME280;6539;49.476;8.484;2023-09-19T10:01:08;100468.84;;;20.30;55.37
12949;BME280;6539;49.476;8.484;2023-09-19T10:03:58;100471.97;;;20.56;54.59
12949;BME280;6539;49.476;8.484;2023-09-19T10:06:48;100462.56;;;20.77;54.01
12949;BME280;6539;49.476;8.484;2023-09-19T10:09:53;100467.56;;;20.73;54.10
12949;BME280;6539;49.476;8.484;2023-09-19T10:13:00;100470.22;;;20.68;52.82
12949;BME280;6539;49.476;8.484;2023-09-19T10:15:51;100460.06;;;20.79;52.36
12949;BME280;6539;49.476;8.484;2023-09-19T10:18:42;100449.78;;;21.18;51.61
12949;BME280;6539;49.476;8.484;2023-09-19T10:21:30;100454.19;;;21.48;50.82
12949;BME280;6539;49.476;8.484;2023-09-19T10:24:18;100450.75;;;21.53;50.30
12949;BME280;6539;49.476;8.484;2023-09-19T10:27:06;100450.00;;;21.82;50.81
12949;BME280;6539;49.476;8.484;2023-09-19T10:29:59;100452.34;;;22.27;49.05
12949;BME280;6539;49.476;8.484;2023-09-19T10:32:56;100440.72;;;22.63;47.20
12949;BME280;6539;49.476;8.484;2023-09-19T10:35:49;100444.31;;;22.35;47.68
12949;BME280;6539;49.476;8.484;2023-09-19T10:38:39;100443.97;;;21.83;49.63
12949;BME280;6539;49.476;8.484;2023-09-19T10:41:30;100445.19;;;21.82;49.71
12949;BME280;6539;49.476;8.484;2023-09-19T10:44:28;100447.03;;;22.00;49.98
12949;BME280;6539;49.476;8.484;2023-09-19T10:47:17;100448.06;;;22.46;48.22
12949;BME280;6539;49.476;8.484;2023-09-19T10:50:08;100445.44;;;23.32;45.72
12949;BME280;6539;49.476;8.484;2023-09-19T10:52:56;100454.91;;;23.15;45.54
12949;BME280;6539;49.476;8.484;2023-09-19T10:55:57;100454.53;;;23.68;43.15
12949;BME280;6539;49.476;8.484;2023-09-19T10:58:48;100455.94;;;23.58;43.64
12949;BME280;6539;49.476;8.484;2023-09-19T11:01:55;100453.13;;;23.83;42.74
12949;BME280;6539;49.476;8.484;2023-09-19T11:04:45;100450.84;;;23.82;41.74
12949;BME280;6539;49.476;8.484;2023-09-19T11:07:57;100446.41;;;23.70;42.82
12949;BME280;6539;49.476;8.484;2023-09-19T11:10:49;100444.72;;;23.83;41.84
12949;BME280;6539;49.476;8.484;2023-09-19T11:13:38;100442.97;;;23.86;41.61
12949;BME280;6539;49.476;8.484;2023-09-19T11:16:26;100446.59;;;24.17;40.97
12949;BME280;6539;49.476;8.484;2023-09-19T11:19:13;100433.81;;;24.48;40.80
12949;BME280;6539;49.476;8.484;2023-09-19T11:21:59;100440.63;;;24.36;41.08
12949;BME280;6539;49.476;8.484;2023-09-19T11:24:45;100436.69;;;24.59;40.33
12949;BME280;6539;49.476;8.484;2023-09-19T11:27:31;100431.84;;;24.22;40.49
12949;BME280;6539;49.476;8.484;2023-09-19T11:30:27;100433.13;;;24.21;40.73
12949;BME280;6539;49.476;8.484;2023-09-19T11:33:29;100427.19;;;23.63;42.39
12949;BME280;6539;49.476;8.484;2023-09-19T11:36:35;100419.75;;;23.85;42.60
12949;BME280;6539;49.476;8.484;2023-09-19T11:39:25;100419.38;;;24.23;41.33
12949;BME280;6539;49.476;8.484;2023-09-19T11:42:47;100412.69;;;24.58;40.86
12949;BME280;6539;49.476;8.484;2023-09-19T11:48:46;100403.00;;;25.01;39.35
12949;BME280;6539;49.476;8.484;2023-09-19T11:51:42;100405.91;;;25.34;38.65
12949;BME280;6539;49.476;8.484;2023-09-19T11:54:31;100399.59;;;25.50;36.82
12949;BME280;6539;49.476;8.484;2023-09-19T11:57:21;100393.75;;;25.59;37.12
12949;BME280;6539;49.476;8.484;2023-09-19T12:00:19;100390.94;;;25.76;37.57
12949;BME280;6539;49.476;8.484;2023-09-19T12:03:10;100403.47;;;25.64;37.33
12949;BME280;6539;49.476;8.484;2023-09-19T12:06:00;100396.53;;;25.48;38.02
12949;BME280;6539;49.476;8.484;2023-09-19T12:08:51;100391.44;;;25.69;37.12
12949;BME280;6539;49.476;8.484;2023-09-19T12:11:44;100376.88;;;25.82;37.07
12949;BME280;6539;49.476;8.484;2023-09-19T12:14:30;100387.63;;;26.22;36.00
12949;BME280;6539;49.476;8.484;2023-09-19T12:17:18;100391.41;;;26.46;35.75
12949;BME280;6539;49.476;8.484;2023-09-19T12:20:05;100384.28;;;26.40;35.93
12949;BME280;6539;49.476;8.484;2023-09-19T12:23:00;100385.47;;;26.72;34.31
12949;BME280;6539;49.476;8.484;2023-09-19T12:25:47;100365.03;;;26.61;33.91
12949;BME280;6539;49.476;8.484;2023-09-19T12:28:41;100370.53;;;26.99;33.63
12949;BME280;6539;49.476;8.484;2023-09-19T12:31:28;100379.59;;;26.76;34.36
12949;BME280;6539;49.476;8.484;2023-09-19T12:34:23;100363.00;;;27.18;33.80
12949;BME280;6539;49.476;8.484;2023-09-19T12:37:18;100369.72;;;27.10;33.27
12949;BME280;6539;49.476;8.484;2023-09-19T12:40:15;100375.81;;;27.19;33.75
12949;BME280;6539;49.476;8.484;2023-09-19T12:43:03;100357.78;;;26.87;33.81
12949;BME280;6539;49.476;8.484;2023-09-19T12:45:51;100369.47;;;26.28;35.32
12949;BME280;6539;49.476;8.484;2023-09-19T12:48:42;100360.75;;;25.99;35.93
12949;BME280;6539;49.476;8.484;2023-09-19T12:51:35;100361.88;;;26.86;34.75
12949;BME280;6539;49.476;8.484;2023-09-19T12:54:22;100358.34;;;26.80;34.85
12949;BME280;6539;49.476;8.484;2023-09-19T12:57:10;100353.75;;;26.55;35.53
12949;BME280;6539;49.476;8.484;2023-09-19T13:00:11;100342.34;;;25.92;37.09
12949;BME280;6539;49.476;8.484;2023-09-19T13:03:36;100348.47;;;26.02;37.53
12949;BME280;6539;49.476;8.484;2023-09-19T13:06:36;100341.28;;;26.34;37.26
12949;BME280;6539;49.476;8.484;2023-09-19T13:09:31;100337.06;;;26.79;36.16
12949;BME280;6539;49.476;8.484;2023-09-19T13:12:37;100334.50;;;27.28;35.46
12949;BME280;6539;49.476;8.484;2023-09-19T13:15:25;100339.44;;;27.92;34.48
12949;BME280;6539;49.476;8.484;2023-09-19T13:18:15;100337.06;;;28.26;32.90
12949;BME280;6539;49.476;8.484;2023-09-19T13:21:13;100335.81;;;27.97;33.42
12949;BME280;6539;49.476;8.484;2023-09-19T13:24:22;100336.78;;;28.05;32.81
12949;BME280;6539;49.476;8.484;2023-09-19T13:27:13;100330.22;;;27.15;34.39
12949;BME280;6539;49.476;8.484;2023-09-19T13:30:07;100326.06;;;26.70;35.63
12949;BME280;6539;49.476;8.484;2023-09-19T13:33:06;100309.63;;;26.85;35.87
12949;BME280;6539;49.476;8.484;2023-09-19T13:35:57;100328.31;;;27.40;35.14
12949;BME280;6539;49.476;8.484;2023-09-19T13:38:44;100320.38;;;27.33;35.04
12949;BME280;6539;49.476;8.484;2023-09-19T13:41:30;100313.22;;;27.32;34.77
12949;BME280;6539;49.476;8.484;2023-09-19T13:44:18;100320.47;;;27.16;34.58
12949;BME280;6539;49.476;8.484;2023-09-19T13:47:06;100318.97;;;27.10;34.74
12949;BME280;6539;49.476;8.484;2023-09-19T13:49:55;100304.69;;;27.43;34.27
12949;BME280;6539;49.476;8.484;2023-09-19T13:52:44;100307.72;;;27.10;35.17
12949;BME280;6539;49.476;8.484;2023-09-19T13:55:30;100317.25;;;26.33;36.51
12949;BME280;6539;49.476;8.484;2023-09-19T13:58:16;100313.44;;;26.03;36.80
12949;BME280;6539;49.476;8.484;2023-09-19T14:01:05;100311.91;;;25.80;37.94
12949;BME280;6539;49.476;8.484;2023-09-19T14:03:53;100306.03;;;25.66;38.46
12949;BME280;6539;49.476;8.484;2023-09-19T14:06:43;100301.19;;;25.61;38.54
12949;BME280;6539;49.476;8.484;2023-09-19T14:09:30;100300.41;;;25.61;38.88
12949;BME280;6539;49.476;8.484;2023-09-19T14:12:19;100297.06;;;25.40;39.18
12949;BME280;6539;49.476;8.484;2023-09-19T14:15:11;100301.41;;;25.25;38.98
12949;BME280;6539;49.476;8.484;2023-09-19T14:17:58;100299.28;;;24.97;40.42
12949;BME280;6539;49.476;8.484;2023-09-19T14:20:46;100304.59;;;24.79;40.11
12949;BME280;6539;49.476;8.484;2023-09-19T14:23:39;100299.56;;;24.46;40.85
12949;BME280;6539;49.476;8.484;2023-09-19T14:26:27;100298.81;;;24.46;40.98
12949;BME280;6539;49.476;8.484;2023-09-19T14:29:16;100292.44;;;24.45;41.04
12949;BME280;6539;49.476;8.484;2023-09-19T14:32:03;100302.13;;;24.44;41.40
12949;BME280;6539;49.476;8.484;2023-09-19T14:34:51;100290.41;;;24.51;41.54
12949;BME280;6539;49.476;8.484;2023-09-19T14:37:38;100288.84;;;24.45;41.96
12949;BME280;6539;49.476;8.484;2023-09-19T14:40:30;100286.72;;;24.29;42.56
12949;BME280;6539;49.476;8.484;2023-09-19T14:43:16;100288.47;;;24.20;42.87
12949;BME280;6539;49.476;8.484;2023-09-19T14:46:06;100285.72;;;24.26;43.07
12949;BME280;6539;49.476;8.484;2023-09-19T14:48:59;100283.66;;;24.27;42.79
12949;BME280;6539;49.476;8.484;2023-09-19T14:51:50;100289.47;;;24.17;42.29
12949;BME280;6539;49.476;8.484;2023-09-19T14:54:40;100284.97;;;23.94;43.23
12949;BME280;6539;49.476;8.484;2023-09-19T14:57:29;100280.16;;;23.64;43.70
12949;BME280;6539;49.476;8.484;2023-09-19T15:00:16;100286.53;;;23.64;44.22
12949;BME280;6539;49.476;8.484;2023-09-19T15:03:05;100285.00;;;23.63;44.12
12949;BME280;6539;49.476;8.484;2023-09-19T15:06:11;100285.38;;;23.76;44.14
12949;BME280;6539;49.476;8.484;2023-09-19T15:09:00;100280.41;;;23.97;44.10
12949;BME280;6539;49.476;8.484;2023-09-19T15:11:46;100276.66;;;24.05;44.03
12949;BME280;6539;49.476;8.484;2023-09-19T15:14:37;100272.16;;;23.82;43.99
12949;BME280;6539;49.476;8.484;2023-09-19T15:17:24;100274.69;;;23.80;44.27
12949;BME280;6539;49.476;8.484;2023-09-19T15:20:11;100275.84;;;23.68;44.99
12949;BME280;6539;49.476;8.484;2023-09-19T15:22:59;100263.13;;;23.67;44.86